Time;durP1;ratioP1;P1;durP2;ratioP2;P2;SDS_P1;SDS_P2;PMS_P1;PMS_P2;Temp;Humidity;BMP_temperature;BMP_pressure;BME280_temperature;BME280_humidity;BME280_pressure;Samples;Min_cycle;Max_cycle;Signal;HPM_P1;HPM_P2
2023/12/10 00:01:02;;;;;;;20.80;3.15;;;;;;;7.42;100.00;96167.75;5029652;28;20100;-60
2023/12/10 00:03:29;;;;;;;11.13;1.77;;;;;;;7.51;100.00;96170.72;5029038;28;20041;-57
2023/12/10 00:05:56;;;;;;;17.80;2.50;;;;;;;7.50;100.00;96182.59;5032591;28;20045;-56
2023/12/10 00:08:36;;;;;;;13.02;1.80;;;;;;;7.49;100.00;96187.16;5026692;28;20041;-58
2023/12/10 00:11:03;;;;;;;19.02;2.25;;;;;;;7.47;100.00;96193.88;5037498;28;20044;-59
2023/12/10 00:13:30;;;;;;;14.93;2.72;;;;;;;7.51;100.00;96184.19;5032977;28;20053;-58
2023/12/10 00:15:56;;;;;;;11.98;2.08;;;;;;;7.49;100.00;96203.31;5031735;28;20087;-52
2023/12/10 00:18:23;;;;;;;14.65;3.20;;;;;;;7.51;100.00;96232.69;5027289;28;20124;-56
2023/12/10 00:20:49;;;;;;;17.13;2.70;;;;;;;7.42;100.00;96230.47;5028604;28;20034;-57
2023/12/10 00:23:16;;;;;;;14.27;3.22;;;;;;;7.45;100.00;96228.34;5028694;28;20076;-58
2023/12/10 00:25:43;;;;;;;16.40;2.65;;;;;;;7.46;100.00;96216.50;5031640;28;20520;-56
2023/12/10 00:28:10;;;;;;;20.52;4.05;;;;;;;7.35;100.00;96213.75;5029916;28;20068;-57
2023/12/10 00:30:37;;;;;;;11.82;2.30;;;;;;;7.34;100.00;96219.41;5032466;28;20040;-53
2023/12/10 00:33:04;;;;;;;14.95;2.80;;;;;;;7.37;100.00;96216.97;5023556;28;20041;-52
2023/12/10 00:35:30;;;;;;;18.40;2.85;;;;;;;7.45;100.00;96225.66;5032127;28;20045;-50
2023/12/10 00:37:57;;;;;;;18.83;2.88;;;;;;;7.56;100.00;96227.34;5032074;28;20067;-55
2023/12/10 00:40:24;;;;;;;11.10;2.65;;;;;;;7.46;100.00;96232.66;5032662;28;20111;-55
2023/12/10 00:42:51;;;;;;;17.15;3.05;;;;;;;7.55;100.00;96233.78;5033227;28;20072;-54
2023/12/10 00:45:17;;;;;;;16.30;2.40;;;;;;;7.42;100.00;96257.41;5038581;28;20048;-56
2023/12/10 00:47:44;;;;;;;15.40;2.55;;;;;;;7.41;100.00;96261.19;5032787;28;20045;-58
2023/12/10 00:50:11;;;;;;;19.65;3.05;;;;;;;7.39;100.00;96247.19;5044565;28;20051;-56
2023/12/10 00:52:38;;;;;;;18.58;2.95;;;;;;;7.42;100.00;96265.50;5036620;28;20094;-56
2023/12/10 00:55:05;;;;;;;20.02;3.25;;;;;;;7.42;100.00;96278.94;5041884;28;20049;-52
2023/12/10 00:57:32;;;;;;;20.15;2.92;;;;;;;7.45;100.00;96282.22;5034938;28;20075;-57
2023/12/10 00:59:59;;;;;;;16.02;2.80;;;;;;;7.40;100.00;96273.03;5037674;28;20722;-54
2023/12/10 01:02:26;;;;;;;18.58;3.55;;;;;;;7.46;100.00;96283.81;5046877;28;20042;-57
2023/12/10 01:04:53;;;;;;;12.38;2.47;;;;;;;7.36;100.00;96288.06;5052182;28;20660;-56
2023/12/10 01:07:20;;;;;;;18.30;3.50;;;;;;;7.38;100.00;96302.09;5038523;28;20044;-58
2023/12/10 01:09:46;;;;;;;20.55;3.88;;;;;;;7.42;100.00;96305.88;5041548;28;20048;-55
2023/12/10 01:12:13;;;;;;;20.85;2.95;;;;;;;7.40;100.00;96318.81;5031728;28;20065;-60
2023/12/10 01:14:40;;;;;;;24.10;3.10;;;;;;;7.42;100.00;96327.44;5046302;28;20068;-56
2023/12/10 01:17:08;;;;;;;21.00;3.83;;;;;;;7.42;100.00;96338.19;5038908;28;20051;-58
2023/12/10 01:19:34;;;;;;;18.77;2.88;;;;;;;7.40;100.00;96353.00;5038322;28;20037;-52
2023/12/10 01:22:01;;;;;;;21.00;4.10;;;;;;;7.37;100.00;96364.31;5042294;28;20112;-57
2023/12/10 01:24:30;;;;;;;21.25;3.97;;;;;;;7.41;100.00;96341.97;5032968;28;20127;-56
2023/12/10 01:26:56;;;;;;;17.50;3.58;;;;;;;7.47;100.00;96350.91;5046858;28;20055;-56
2023/12/10 01:29:25;;;;;;;24.70;3.95;;;;;;;7.53;100.00;96341.00;5052495;28;20530;-57
2023/12/10 01:31:52;;;;;;;19.77;3.55;;;;;;;7.54;100.00;96354.22;5046251;28;20037;-57
2023/12/10 01:34:18;;;;;;;23.95;3.38;;;;;;;7.61;100.00;96375.53;5037924;28;20040;-53
2023/12/10 01:36:45;;;;;;;21.92;3.70;;;;;;;7.48;100.00;96371.38;5047640;28;20041;-56
2023/12/10 01:39:14;;;;;;;21.13;3.28;;;;;;;7.49;100.00;96377.59;5050889;28;20129;-59
2023/12/10 01:41:41;;;;;;;15.40;3.38;;;;;;;7.42;100.00;96377.81;5031108;28;20120;-56
2023/12/10 01:44:09;;;;;;;21.65;3.47;;;;;;;7.40;100.00;96383.44;5037813;28;20117;-55
2023/12/10 01:46:36;;;;;;;17.52;2.83;;;;;;;7.36;100.00;96376.94;5035135;28;20048;-59
2023/12/10 01:49:07;;;;;;;16.83;3.22;;;;;;;7.46;100.00;96394.25;5034236;28;20042;-55
2023/12/10 01:51:36;;;;;;;;;;;;;;;7.58;100.00;96405.69;5049286;28;20071;-55
2023/12/10 01:54:03;;;;;;;13.48;2.45;;;;;;;7.57;100.00;96398.69;5038200;28;19955;-58
2023/12/10 01:56:30;;;;;;;19.75;3.00;;;;;;;7.58;100.00;96412.94;5033081;28;20525;-58
2023/12/10 01:58:58;;;;;;;16.23;2.47;;;;;;;7.52;100.00;96412.09;5036667;28;20052;-58
2023/12/10 02:01:25;;;;;;;15.07;2.63;;;;;;;7.62;100.00;96409.50;5041131;28;20557;-57
2023/12/10 02:03:53;;;;;;;19.48;2.70;;;;;;;7.64;100.00;96428.09;5041589;28;20168;-58
2023/12/10 02:06:22;;;;;;;17.40;3.10;;;;;;;7.63;100.00;96427.28;5041362;28;20108;-57
2023/12/10 02:08:48;;;;;;;20.70;2.70;;;;;;;7.52;100.00;96426.38;5040892;28;20041;-54
2023/12/10 02:11:15;;;;;;;15.57;2.97;;;;;;;7.49;100.00;96456.50;5034735;28;20127;-56
2023/12/10 02:13:42;;;;;;;18.00;2.85;;;;;;;7.45;100.00;96452.72;5037953;28;20037;-57
2023/12/10 02:16:09;;;;;;;15.77;3.08;;;;;;;7.45;100.00;96465.38;5044427;28;20048;-59
2023/12/10 02:18:35;;;;;;;12.05;2.17;;;;;;;7.27;100.00;96457.38;5033885;28;20045;-58
2023/12/10 02:21:02;;;;;;;15.27;2.03;;;;;;;7.37;100.00;96470.13;5036132;28;20052;-57
2023/12/10 02:23:49;;;;;;;11.95;1.92;;;;;;;7.31;100.00;96478.41;5038682;28;20072;-56
2023/12/10 02:26:16;;;;;;;10.27;1.70;;;;;;;7.32;100.00;96480.84;5024213;28;20460;-55
2023/12/10 02:28:43;;;;;;;10.65;1.98;;;;;;;7.08;100.00;96493.78;5040683;28;20063;-51
2023/12/10 02:31:10;;;;;;;10.98;2.10;;;;;;;6.97;100.00;96492.84;5034568;28;20036;-54
2023/12/10 02:33:37;;;;;;;8.85;1.40;;;;;;;6.85;100.00;96501.00;5041444;28;20094;-53
2023/12/10 02:36:04;;;;;;;6.75;1.77;;;;;;;6.62;100.00;96498.31;5031922;28;20045;-51
2023/12/10 02:38:30;;;;;;;7.30;1.67;;;;;;;6.63;100.00;96491.03;5041360;28;20053;-53
2023/12/10 02:40:57;;;;;;;8.70;1.70;;;;;;;6.67;100.00;96502.94;5040925;28;20115;-56
2023/12/10 02:43:23;;;;;;;6.47;1.38;;;;;;;6.56;100.00;96504.69;5045251;28;20036;-57
2023/12/10 02:45:50;;;;;;;7.60;1.35;;;;;;;6.50;100.00;96509.16;5039305;28;20119;-57
2023/12/10 02:48:21;;;;;;;10.55;1.77;;;;;;;6.47;100.00;96503.47;5041451;28;20045;-57
2023/12/10 02:50:49;;;;;;;;;;;;;;;6.55;100.00;96518.38;5027752;28;20183;-57
2023/12/10 02:53:16;;;;;;;6.25;1.98;;;;;;;6.49;100.00;96512.91;5027033;28;20311;-56
2023/12/10 02:55:43;;;;;;;8.10;1.75;;;;;;;6.36;100.00;96511.41;5038115;28;20045;-56
2023/12/10 02:58:10;;;;;;;8.90;1.63;;;;;;;6.35;100.00;96512.44;5047521;28;20047;-56
2023/12/10 03:00:36;;;;;;;9.15;1.98;;;;;;;6.35;100.00;96525.88;5042096;28;20047;-56
2023/12/10 03:03:03;;;;;;;11.38;2.00;;;;;;;6.32;100.00;96525.56;5038897;28;20472;-50
2023/12/10 03:05:30;;;;;;;9.15;1.65;;;;;;;6.30;100.00;96533.88;5022078;28;20115;-51
2023/12/10 03:07:57;;;;;;;9.63;2.10;;;;;;;6.38;100.00;96532.69;5046369;28;20045;-55
2023/12/10 03:10:23;;;;;;;15.00;2.42;;;;;;;6.38;100.00;96538.84;5035716;28;20048;-56
2023/12/10 03:12:50;;;;;;;11.02;2.30;;;;;;;6.39;100.00;96539.69;5034131;28;20036;-58
2023/12/10 03:15:17;;;;;;;18.48;2.17;;;;;;;6.45;100.00;96548.63;5040608;28;20051;-57
2023/12/10 03:17:43;;;;;;;15.15;2.45;;;;;;;6.47;100.00;96535.75;5037111;28;20068;-60
2023/12/10 03:20:12;;;;;;;12.90;2.38;;;;;;;6.43;100.00;96535.44;5033502;28;20788;-58
2023/12/10 03:22:39;;;;;;;14.25;2.33;;;;;;;6.38;100.00;96540.75;5036661;28;20052;-57
2023/12/10 03:25:06;;;;;;;12.48;2.08;;;;;;;6.57;100.00;96553.91;5040417;28;20049;-53
2023/12/10 03:27:34;;;;;;;8.38;1.83;;;;;;;6.63;100.00;96534.91;5036264;28;20482;-57
2023/12/10 03:30:00;;;;;;;18.02;2.35;;;;;;;6.64;100.00;96549.97;5038875;28;20038;-57
2023/12/10 03:32:27;;;;;;;13.90;2.65;;;;;;;6.57;100.00;96546.66;5043114;28;20038;-58
2023/12/10 03:34:54;;;;;;;10.75;2.13;;;;;;;6.62;100.00;96554.00;5048438;28;20113;-53
2023/12/10 03:37:21;;;;;;;17.05;2.10;;;;;;;6.56;100.00;96561.16;5038347;28;20735;-55
2023/12/10 03:39:48;;;;;;;13.00;2.15;;;;;;;6.64;100.00;96576.88;5040968;28;20037;-58
2023/12/10 03:42:14;;;;;;;9.68;1.83;;;;;;;6.74;100.00;96570.03;5030198;28;20094;-59
2023/12/10 03:44:41;;;;;;;9.88;1.90;;;;;;;6.79;100.00;96580.88;5032844;28;20117;-56
2023/12/10 03:47:07;;;;;;;10.57;2.22;;;;;;;6.78;100.00;96589.19;5027209;28;20087;-58
2023/12/10 03:49:34;;;;;;;11.73;1.77;;;;;;;6.81;100.00;96589.50;5029355;28;20488;-57
2023/12/10 03:52:00;;;;;;;11.52;1.95;;;;;;;6.67;100.00;96607.06;5033496;28;20033;-54
2023/12/10 03:54:27;;;;;;;13.57;2.22;;;;;;;6.57;100.00;96592.41;5037234;28;20535;-55
2023/12/10 03:56:54;;;;;;;12.32;2.03;;;;;;;6.56;100.00;96590.75;5022974;28;20075;-59
2023/12/10 03:59:20;;;;;;;9.63;1.70;;;;;;;6.64;100.00;96594.91;5031742;28;20048;-49
2023/12/10 04:01:47;;;;;;;17.80;2.33;;;;;;;6.58;100.00;96579.75;5029974;28;20044;-54
2023/12/10 04:04:14;;;;;;;12.55;2.03;;;;;;;6.52;100.00;96592.28;5042170;28;20142;-59
2023/12/10 04:06:41;;;;;;;12.50;2.30;;;;;;;6.60;100.00;96591.09;5037979;28;20047;-55
2023/12/10 04:09:08;;;;;;;11.63;1.85;;;;;;;6.60;100.00;96613.41;5047011;28;20052;-55
2023/12/10 04:11:35;;;;;;;10.68;2.17;;;;;;;6.68;100.00;96612.19;5042195;28;20037;-58
2023/12/10 04:14:03;;;;;;;9.48;1.88;;;;;;;6.66;100.00;96603.53;5032561;28;20053;-56
2023/12/10 04:16:30;;;;;;;14.80;2.00;;;;;;;6.72;100.00;96609.81;5028136;28;20076;-53
2023/12/10 04:18:56;;;;;;;8.77;1.80;;;;;;;6.72;100.00;96607.97;5033235;28;20028;-51
2023/12/10 04:21:24;;;;;;;17.25;2.20;;;;;;;6.79;100.00;96632.00;5038926;28;20098;-57
2023/12/10 04:23:50;;;;;;;16.27;2.33;;;;;;;6.84;100.00;96623.19;5039280;28;20423;-58
2023/12/10 04:26:17;;;;;;;11.45;2.10;;;;;;;6.71;100.00;96619.75;5031680;28;20049;-58
2023/12/10 04:28:44;;;;;;;12.45;1.90;;;;;;;6.62;100.00;96610.47;5041537;28;20045;-59
2023/12/10 04:31:11;;;;;;;13.82;2.00;;;;;;;6.63;100.00;96612.94;5035650;28;20047;-58
2023/12/10 04:33:38;;;;;;;16.73;2.67;;;;;;;6.69;100.00;96613.00;5042503;28;20072;-55
2023/12/10 04:36:05;;;;;;;9.50;1.60;;;;;;;6.84;100.00;96621.31;5040030;28;20061;-58
2023/12/10 04:38:31;;;;;;;13.40;2.08;;;;;;;6.87;100.00;96617.31;5039568;28;20041;-56
2023/12/10 04:40:58;;;;;;;11.55;1.75;;;;;;;6.87;100.00;96604.69;5038354;28;20043;-56
2023/12/10 04:43:25;;;;;;;16.60;2.45;;;;;;;6.81;100.00;96619.09;5038550;28;20477;-57
2023/12/10 04:45:51;;;;;;;9.13;1.75;;;;;;;6.89;100.00;96612.47;5035095;28;20045;-58
2023/12/10 04:48:18;;;;;;;12.55;1.95;;;;;;;6.84;100.00;96609.72;5032495;28;20098;-60
2023/12/10 04:50:45;;;;;;;15.20;2.10;;;;;;;6.72;100.00;96616.03;5045601;28;20040;-57
2023/12/10 04:53:11;;;;;;;9.20;1.83;;;;;;;6.80;100.00;96609.41;5030605;28;20121;-58
2023/12/10 04:55:38;;;;;;;14.07;2.97;;;;;;;6.83;100.00;96633.16;5033965;28;20037;-57
2023/12/10 04:58:05;;;;;;;12.73;2.17;;;;;;;6.74;100.00;96621.97;5030467;28;20492;-57
2023/12/10 05:00:31;;;;;;;10.02;1.83;;;;;;;6.71;100.00;96625.13;5037167;28;20036;-55
2023/12/10 05:02:58;;;;;;;11.68;2.60;;;;;;;6.79;100.00;96617.72;5038517;28;20425;-57
2023/12/10 05:05:24;;;;;;;9.73;1.63;;;;;;;6.84;100.00;96640.16;5040859;28;20041;-58
2023/12/10 05:07:51;;;;;;;11.60;2.63;;;;;;;6.83;100.00;96630.44;5028547;28;20106;-57
2023/12/10 05:10:18;;;;;;;9.82;1.80;;;;;;;6.83;99.59;96645.78;5038870;28;20124;-55
2023/12/10 05:12:44;;;;;;;7.93;1.63;;;;;;;6.78;100.00;96654.56;5038638;28;20524;-53
2023/12/10 05:15:12;;;;;;;15.90;2.47;;;;;;;6.68;100.00;96644.47;5030815;28;20103;-57
2023/12/10 05:17:38;;;;;;;8.38;1.75;;;;;;;6.59;100.00;96654.00;5031890;28;20071;-57
2023/12/10 05:20:07;;;;;;;9.70;1.70;;;;;;;6.68;100.00;96684.00;5037777;28;20048;-55
2023/12/10 05:22:34;;;;;;;6.20;1.25;;;;;;;6.73;98.95;96670.63;5035647;28;20052;-55
2023/12/10 05:25:01;;;;;;;15.25;1.83;;;;;;;6.71;99.46;96680.84;5041301;28;20076;-58
2023/12/10 05:27:32;;;;;;;9.25;1.85;;;;;;;6.77;98.75;96677.16;5042950;28;20041;-57
2023/12/10 05:29:59;;;;;;;8.73;2.13;;;;;;;6.74;99.29;96685.72;5041915;28;20536;-58
2023/12/10 05:32:27;;;;;;;12.70;2.25;;;;;;;6.59;100.00;96694.34;5045062;28;20489;-58
2023/12/10 05:34:54;;;;;;;8.07;1.50;;;;;;;6.54;100.00;96697.78;5037648;28;20041;-54
2023/12/10 05:37:21;;;;;;;9.90;1.70;;;;;;;6.54;100.00;96695.09;5032099;28;20044;-58
2023/12/10 05:39:48;;;;;;;13.38;1.95;;;;;;;6.52;100.00;96709.84;5044977;28;20464;-56
2023/12/10 05:42:15;;;;;;;19.48;2.55;;;;;;;6.43;100.00;96704.03;5037575;28;20054;-56
2023/12/10 05:44:41;;;;;;;11.32;1.67;;;;;;;6.40;100.00;96712.56;5033903;28;20095;-57
2023/12/10 05:47:08;;;;;;;11.00;1.55;;;;;;;6.35;100.00;96724.84;5042416;28;20594;-58
2023/12/10 05:49:34;;;;;;;11.38;1.80;;;;;;;6.44;100.00;96711.03;5041198;28;20045;-56
2023/12/10 05:52:01;;;;;;;10.70;1.67;;;;;;;6.46;100.00;96733.97;5041866;28;20112;-58
2023/12/10 05:54:28;;;;;;;11.80;1.90;;;;;;;6.41;100.00;96758.03;5036169;28;20045;-57
2023/12/10 05:56:54;;;;;;;11.98;2.58;;;;;;;6.49;98.93;96722.69;5046454;28;20052;-58
2023/12/10 05:59:21;;;;;;;15.95;3.78;;;;;;;6.60;95.89;96730.97;5036362;28;20063;-57
2023/12/10 06:01:48;;;;;;;6.68;0.88;;;;;;;6.62;96.14;96734.22;5039655;28;20087;-55
2023/12/10 06:04:15;;;;;;;13.13;1.38;;;;;;;6.68;95.99;96740.50;5042236;28;20037;-56
2023/12/10 06:06:42;;;;;;;10.98;1.83;;;;;;;6.71;95.95;96748.09;5034263;28;20040;-56
2023/12/10 06:09:09;;;;;;;6.80;1.67;;;;;;;6.70;96.63;96749.97;5041231;28;20060;-56
2023/12/10 06:11:36;;;;;;;12.05;1.95;;;;;;;6.67;96.93;96766.59;5045855;28;20111;-58
2023/12/10 06:14:02;;;;;;;8.85;1.75;;;;;;;6.66;96.10;96759.56;5034389;28;20044;-54
2023/12/10 06:16:29;;;;;;;12.95;2.17;;;;;;;6.61;96.44;96770.25;5047422;28;20519;-57
2023/12/10 06:18:55;;;;;;;6.15;1.38;;;;;;;6.74;95.62;96771.81;5038742;28;20057;-57
2023/12/10 06:21:22;;;;;;;11.32;1.80;;;;;;;6.78;94.87;96793.69;5043828;28;20038;-53
2023/12/10 06:23:49;;;;;;;9.23;1.45;;;;;;;6.72;96.80;96784.69;5042257;28;20107;-54
2023/12/10 06:26:15;;;;;;;10.35;1.30;;;;;;;6.81;95.89;96785.94;5040117;28;20685;-58
2023/12/10 06:28:42;;;;;;;10.23;1.38;;;;;;;6.90;94.80;96797.94;5039506;28;20072;-57
2023/12/10 06:31:09;;;;;;;7.88;1.50;;;;;;;6.85;95.78;96792.47;5034243;28;20049;-57
2023/12/10 06:33:36;;;;;;;14.13;1.67;;;;;;;6.87;95.71;96797.63;5038618;28;20043;-55
2023/12/10 06:36:03;;;;;;;7.97;1.20;;;;;;;6.81;96.58;96802.09;5034630;28;20662;-55
2023/12/10 06:38:30;;;;;;;10.90;1.83;;;;;;;6.85;96.81;96821.25;5043268;28;20431;-59
2023/12/10 06:40:56;;;;;;;10.57;2.15;;;;;;;6.85;96.10;96815.88;5035488;28;20057;-59
2023/12/10 06:43:24;;;;;;;6.65;1.48;;;;;;;6.80;96.52;96810.41;5037165;28;20645;-58
2023/12/10 06:45:51;;;;;;;9.20;1.85;;;;;;;6.74;97.59;96820.25;5033838;28;20135;-58
2023/12/10 06:48:18;;;;;;;5.45;1.17;;;;;;;6.77;98.14;96822.47;5044187;28;20041;-58
2023/12/10 06:50:45;;;;;;;8.38;1.33;;;;;;;6.83;97.82;96816.13;5043793;28;20158;-58
2023/12/10 06:53:11;;;;;;;9.95;2.28;;;;;;;6.81;98.56;96825.50;5039823;28;20424;-57
2023/12/10 06:55:38;;;;;;;12.70;1.58;;;;;;;6.82;98.70;96816.38;5047440;28;20090;-58
2023/12/10 06:58:04;;;;;;;9.35;2.80;;;;;;;6.75;99.70;96824.59;5036112;28;20076;-54
2023/12/10 07:00:31;;;;;;;9.50;2.05;;;;;;;6.80;98.43;96827.38;5043853;28;20048;-56
2023/12/10 07:02:58;;;;;;;7.28;1.25;;;;;;;6.87;97.82;96838.81;5036193;28;20037;-56
2023/12/10 07:05:25;;;;;;;9.18;1.52;;;;;;;6.85;98.06;96846.28;5041007;28;20101;-57
2023/12/10 07:07:51;;;;;;;8.70;1.45;;;;;;;6.82;99.11;96845.97;5038573;28;20532;-57
2023/12/10 07:10:18;;;;;;;10.07;1.70;;;;;;;6.74;99.34;96860.59;5039209;28;20124;-56
2023/12/10 07:12:45;;;;;;;7.88;1.40;;;;;;;6.80;98.80;96867.72;5041116;28;20037;-58
2023/12/10 07:15:11;;;;;;;9.93;2.25;;;;;;;6.78;98.87;96872.53;5042777;28;20044;-57
2023/12/10 07:17:38;;;;;;;10.57;1.75;;;;;;;6.74;99.69;96863.28;5044256;28;20501;-59
2023/12/10 07:20:09;;;;;;;6.97;1.38;;;;;;;6.79;99.47;96865.28;5037615;28;20048;-58
2023/12/10 07:22:35;;;;;;;7.07;1.10;;;;;;;6.81;99.33;96863.97;5028661;28;20129;-58
2023/12/10 07:25:05;;;;;;;11.63;1.77;;;;;;;6.75;99.20;96883.78;5021658;28;20115;-58
2023/12/10 07:27:32;;;;;;;11.30;1.90;;;;;;;6.73;99.88;96878.63;5052161;28;20051;-59
2023/12/10 07:29:58;;;;;;;7.55;1.20;;;;;;;6.83;99.46;96893.34;5039579;28;20044;-55
2023/12/10 07:32:25;;;;;;;13.02;1.77;;;;;;;6.87;99.46;96894.50;5039300;28;20041;-55
2023/12/10 07:34:52;;;;;;;8.18;1.20;;;;;;;6.88;99.49;96880.81;5043527;28;20468;-55
2023/12/10 07:37:19;;;;;;;8.57;1.77;;;;;;;6.87;100.00;96883.72;5032250;28;20481;-57
2023/12/10 07:39:46;;;;;;;12.23;1.83;;;;;;;6.87;99.71;96873.78;5039462;28;20103;-58
2023/12/10 07:42:12;;;;;;;7.03;1.58;;;;;;;6.87;99.76;96889.94;5044393;28;20048;-57
2023/12/10 07:44:40;;;;;;;9.10;1.67;;;;;;;6.82;98.97;96875.56;5041667;28;20122;-55
2023/12/10 07:47:07;;;;;;;12.02;2.47;;;;;;;6.81;98.44;96877.44;5035215;28;20515;-57
2023/12/10 07:49:37;;;;;;;11.90;2.45;;;;;;;6.94;97.88;96886.28;5040897;28;20089;-56
2023/12/10 07:52:05;;;;;;;8.27;1.65;;;;;;;6.96;98.07;96884.97;5037268;28;20530;-58
2023/12/10 07:54:31;;;;;;;13.13;2.00;;;;;;;6.99;97.47;96891.75;5048105;28;20136;-58
2023/12/10 07:56:58;;;;;;;8.30;1.70;;;;;;;6.93;98.54;96896.22;5047522;28;20041;-56
2023/12/10 07:59:25;;;;;;;9.82;1.38;;;;;;;6.92;97.91;96889.22;5030079;28;20046;-58
2023/12/10 08:01:52;;;;;;;11.25;2.00;;;;;;;6.90;97.61;96889.44;5030770;28;20095;-58
2023/12/10 08:04:19;;;;;;;8.27;1.65;;;;;;;6.86;97.72;96890.19;5031218;28;20129;-58
2023/12/10 08:06:45;;;;;;;4.85;1.50;;;;;;;7.04;96.44;96894.53;5044550;28;20051;-58
2023/12/10 08:09:12;;;;;;;9.25;1.88;;;;;;;6.94;97.48;96899.75;5035531;28;20482;-58
2023/12/10 08:11:39;;;;;;;10.70;2.13;;;;;;;7.01;96.25;96897.72;5031898;28;20075;-56
2023/12/10 08:14:05;;;;;;;8.35;1.33;;;;;;;7.19;94.61;96893.19;5035374;28;20071;-56
2023/12/10 08:16:32;;;;;;;9.43;1.40;;;;;;;7.19;95.79;96907.47;5035951;28;20041;-55
2023/12/10 08:19:02;;;;;;;5.40;1.00;;;;;;;7.27;93.98;96903.56;5041602;28;20048;-55
2023/12/10 08:21:29;;;;;;;7.95;1.75;;;;;;;7.29;93.25;96894.19;5045083;28;20060;-56
2023/12/10 08:23:56;;;;;;;5.68;1.02;;;;;;;7.15;94.67;96907.13;5032028;28;20500;-56
2023/12/10 08:26:22;;;;;;;8.32;1.52;;;;;;;7.15;94.54;96892.88;5044025;28;20049;-54
2023/12/10 08:28:49;;;;;;;6.68;1.27;;;;;;;7.10;94.72;96901.66;5036522;28;20043;-56
2023/12/10 08:31:15;;;;;;;8.93;1.55;;;;;;;7.24;93.36;96890.59;5030082;28;20135;-53
2023/12/10 08:33:45;;;;;;;10.18;2.00;;;;;;;7.15;95.00;96912.53;5043210;28;20045;-54
2023/12/10 08:36:12;;;;;;;4.90;1.42;;;;;;;7.23;94.62;96914.00;5034243;28;20127;-56
2023/12/10 08:38:39;;;;;;;9.45;1.60;;;;;;;7.21;94.35;96918.00;5043352;28;20131;-57
2023/12/10 08:41:06;;;;;;;9.98;1.92;;;;;;;7.27;94.75;96917.03;5047469;28;20045;-56
2023/12/10 08:43:33;;;;;;;8.52;1.42;;;;;;;7.34;93.96;96922.28;5043709;28;20752;-58
2023/12/10 08:46:00;;;;;;;11.50;1.73;;;;;;;7.48;93.44;96939.75;5023368;28;20605;-56
2023/12/10 08:48:27;;;;;;;10.07;1.83;;;;;;;7.54;94.75;96921.81;5043541;28;20095;-58
2023/12/10 08:50:54;;;;;;;11.05;1.90;;;;;;;7.65;94.72;96920.94;5036711;28;20053;-58
2023/12/10 08:53:20;;;;;;;11.20;1.20;;;;;;;7.80;93.33;96930.31;5035380;28;20096;-58
2023/12/10 08:55:48;;;;;;;10.95;1.50;;;;;;;7.76;93.08;96937.25;5045330;28;20102;-57
2023/12/10 08:58:15;;;;;;;13.23;2.13;;;;;;;7.74;95.44;96934.81;5032331;28;20065;-63
2023/12/10 09:00:42;;;;;;;12.95;1.48;;;;;;;7.77;95.30;96949.66;5045911;28;20047;-61
2023/12/10 09:03:09;;;;;;;7.53;1.48;;;;;;;7.74;97.14;96953.66;5035460;28;20060;-64
2023/12/10 09:05:35;;;;;;;13.30;2.60;;;;;;;7.46;100.00;96968.00;5051436;28;20227;-62
2023/12/10 09:08:02;;;;;;;7.13;1.30;;;;;;;7.25;100.00;96975.69;5042855;28;20049;-62
2023/12/10 09:10:28;;;;;;;6.50;1.30;;;;;;;7.20;100.00;96981.81;5036714;28;20512;-59
2023/12/10 09:12:55;;;;;;;11.82;1.85;;;;;;;7.13;100.00;96981.97;5039847;28;20033;-61
2023/12/10 09:15:22;;;;;;;8.57;1.90;;;;;;;7.01;100.00;96989.25;5035787;28;20051;-61
2023/12/10 09:17:48;;;;;;;13.23;1.38;;;;;;;6.94;100.00;97002.00;5048580;28;20263;-61
2023/12/10 09:20:15;;;;;;;13.75;2.50;;;;;;;6.94;100.00;97004.72;5049119;28;20041;-61
2023/12/10 09:22:42;;;;;;;9.70;1.40;;;;;;;6.82;100.00;96991.28;5039366;28;20543;-61
2023/12/10 09:25:09;;;;;;;7.15;1.60;;;;;;;6.79;100.00;96984.50;5042084;28;20136;-61
2023/12/10 09:27:35;;;;;;;9.15;1.42;;;;;;;6.67;100.00;96991.78;5037053;28;20063;-61
2023/12/10 09:30:02;;;;;;;9.93;2.00;;;;;;;6.60;100.00;96994.59;5046857;28;20785;-61
2023/12/10 09:32:29;;;;;;;8.23;1.27;;;;;;;6.80;100.00;96991.50;5048878;28;20142;-61
2023/12/10 09:34:56;;;;;;;11.30;1.67;;;;;;;6.68;100.00;97010.38;5037149;28;20041;-61
2023/12/10 09:37:23;;;;;;;6.32;1.63;;;;;;;6.75;100.00;97002.19;5045500;28;20041;-61
2023/12/10 09:39:49;;;;;;;7.95;1.83;;;;;;;6.87;100.00;97010.22;5032341;28;20073;-61
2023/12/10 09:42:16;;;;;;;14.07;1.98;;;;;;;6.92;100.00;97002.25;5045851;28;20512;-61
2023/12/10 09:44:43;;;;;;;10.82;1.67;;;;;;;6.89;100.00;97008.94;5052680;28;20036;-61
2023/12/10 09:47:10;;;;;;;14.30;2.05;;;;;;;6.93;100.00;97006.56;5044184;28;20049;-61
2023/12/10 09:49:40;;;;;;;7.10;1.67;;;;;;;6.93;100.00;96998.50;5041846;28;20108;-61
2023/12/10 09:52:08;;;;;;;10.48;1.70;;;;;;;7.04;100.00;96996.81;5042541;28;20130;-60
2023/12/10 09:54:39;;;;;;;7.00;1.65;;;;;;;6.96;100.00;97008.00;5043438;28;20708;-60
2023/12/10 09:57:06;;;;;;;8.07;1.90;;;;;;;7.11;100.00;97008.28;5030421;28;20057;-60
2023/12/10 09:59:34;;;;;;;9.73;1.60;;;;;;;7.09;100.00;97002.34;5051237;28;20048;-60
2023/12/10 10:02:03;;;;;;;10.85;1.98;;;;;;;7.05;100.00;96984.19;5045424;28;20052;-60
2023/12/10 10:04:30;;;;;;;9.98;1.70;;;;;;;7.19;100.00;96972.09;5037235;28;20041;-60
2023/12/10 10:06:57;;;;;;;8.57;1.73;;;;;;;7.13;100.00;96991.91;5036096;28;20040;-60
2023/12/10 10:09:24;;;;;;;7.72;1.10;;;;;;;7.35;100.00;96991.22;5029782;28;20059;-60
2023/12/10 10:12:03;;;;;;;11.20;1.40;;;;;;;7.21;100.00;96978.06;5050966;28;20138;-60
2023/12/10 10:14:29;;;;;;;7.20;1.40;;;;;;;7.34;100.00;96995.00;5052860;28;20720;-61
2023/12/10 10:16:56;;;;;;;12.85;1.80;;;;;;;7.39;100.00;96992.38;5049120;28;20479;-60
2023/12/10 10:19:25;;;;;;;7.38;1.50;;;;;;;7.28;100.00;96991.38;5041383;28;20385;-61
2023/12/10 10:21:53;;;;;;;10.48;1.38;;;;;;;7.23;100.00;96994.78;5055065;28;20048;-61
2023/12/10 10:24:19;;;;;;;9.98;1.60;;;;;;;7.26;100.00;96983.53;5043999;28;20047;-61
2023/12/10 10:26:48;;;;;;;5.78;1.35;;;;;;;7.14;100.00;96988.97;5043754;28;20471;-61
2023/12/10 10:29:15;;;;;;;8.95;1.63;;;;;;;7.25;100.00;96986.47;5044413;28;20048;-61
2023/12/10 10:31:43;;;;;;;10.70;1.60;;;;;;;7.16;100.00;96992.22;5041205;28;20536;-61
2023/12/10 10:34:12;;;;;;;9.70;1.95;;;;;;;7.35;100.00;96992.06;5034815;28;20041;-61
2023/12/10 10:36:39;;;;;;;9.70;2.05;;;;;;;7.24;100.00;96992.91;5051822;28;20147;-61
2023/12/10 10:39:07;;;;;;;9.40;1.63;;;;;;;7.30;100.00;96983.91;5041569;28;20049;-61
2023/12/10 10:41:35;;;;;;;9.05;1.67;;;;;;;7.45;100.00;96982.53;5045621;28;20758;-61
2023/12/10 10:44:02;;;;;;;7.82;1.63;;;;;;;7.52;100.00;96991.28;5036431;28;20037;-60
2023/12/10 10:46:29;;;;;;;7.30;1.50;;;;;;;7.42;100.00;96984.63;5038415;28;20695;-61
2023/12/10 10:48:57;;;;;;;7.18;1.92;;;;;;;7.58;100.00;97002.97;5047222;28;20037;-61
2023/12/10 10:51:27;;;;;;;9.73;1.50;;;;;;;7.62;100.00;96999.56;5040483;28;20069;-61
2023/12/10 10:53:56;;;;;;;14.70;2.42;;;;;;;7.72;100.00;96988.13;5035493;28;20040;-61
2023/12/10 10:56:24;;;;;;;10.40;1.55;;;;;;;7.62;100.00;96980.69;5036163;28;20575;-61
2023/12/10 10:58:50;;;;;;;7.60;1.65;;;;;;;7.68;100.00;96974.31;5042785;28;20420;-61
2023/12/10 11:01:39;;;;;;;8.85;1.80;;;;;;;7.83;100.00;96970.25;5035629;28;20769;-59
2023/12/10 11:04:07;;;;;;;8.07;1.52;;;;;;;7.83;100.00;96972.97;5035959;28;20047;-61
2023/12/10 11:06:35;;;;;;;5.38;1.40;;;;;;;7.74;100.00;96972.53;5034991;28;20047;-60
2023/12/10 11:09:02;;;;;;;9.15;2.50;;;;;;;7.88;100.00;96964.94;5043940;28;20045;-61
2023/12/10 11:11:37;;;;;;;6.63;1.42;;;;;;;7.84;100.00;96971.06;5035496;28;21878;-61
2023/12/10 11:14:04;;;;;;;9.13;2.38;;;;;;;7.92;100.00;96958.00;5034555;28;20051;-60
2023/12/10 11:16:35;;;;;;;8.30;1.45;;;;;;;8.11;100.00;96975.81;5037129;28;20720;-59
2023/12/10 11:19:02;;;;;;;11.77;1.88;;;;;;;8.38;100.00;96984.06;5042853;28;20491;-59
2023/12/10 11:21:29;;;;;;;7.95;2.03;;;;;;;8.03;100.00;96982.44;5040302;28;20076;-60
2023/12/10 11:23:56;;;;;;;12.77;2.45;;;;;;;8.00;100.00;96974.84;5039951;28;20037;-60
2023/12/10 11:26:23;;;;;;;10.95;2.83;;;;;;;7.99;100.00;96984.81;5036793;28;20056;-62
2023/12/10 11:28:50;;;;;;;7.03;1.65;;;;;;;8.18;100.00;96971.88;5037080;28;20045;-61
2023/12/10 11:31:18;;;;;;;8.65;1.88;;;;;;;8.14;100.00;96964.56;5038355;28;20072;-60